sensor_id;sensor_type;location;lat;lon;timestamp;pressure;altitude;pressure_sealevel;temperature;humidity
56604;BME280;42486;47.478;19.036;2022-09-09T00:02:57;99945.88;;;16.55;100.00
56604;BME280;42486;47.478;19.036;2022-09-09T00:09:17;99938.09;;;16.45;100.00
56604;BME280;42486;47.478;19.036;2022-09-09T00:12:43;99939.75;;;16.46;100.00
56604;BME280;42486;47.478;19.036;2022-09-09T00:18:52;99927.25;;;16.65;100.00
56604;BME280;42486;47.478;19.036;2022-09-09T00:22:17;99937.12;;;16.55;100.00
56604;BME280;42486;47.478;19.036;2022-09-09T00:28:38;99947.81;;;16.45;100.00
56604;BME280;42486;47.478;19.036;2022-09-09T00:31:41;99955.06;;;16.43;100.00
56604;BME280;42486;47.478;19.036;2022-09-09T00:34:47;99946.78;;;16.29;100.00
56604;BME280;42486;47.478;19.036;2022-09-09T00:37:50;99943.78;;;16.24;100.00
56604;BME280;42486;47.478;19.036;2022-09-09T00:44:03;99958.62;;;16.25;100.00
56604;BME280;42486;47.478;19.036;2022-09-09T01:06:33;99957.53;;;16.36;100.00
56604;BME280;42486;47.478;19.036;2022-09-09T01:12:41;99972.66;;;16.34;100.00
56604;BME280;42486;47.478;19.036;2022-09-09T01:15:45;99982.06;;;16.37;100.00
56604;BME280;42486;47.478;19.036;2022-09-09T01:18:49;99985.19;;;16.32;100.00
56604;BME280;42486;47.478;19.036;2022-09-09T01:28:22;99982.06;;;16.37;100.00
56604;BME280;42486;47.478;19.036;2022-09-09T01:31:41;99981.91;;;16.38;100.00
56604;BME280;42486;47.478;19.036;2022-09-09T01:34:44;99986.00;;;16.33;100.00
56604;BME280;42486;47.478;19.036;2022-09-09T01:37:48;99991.59;;;16.29;100.00
56604;BME280;42486;47.478;19.036;2022-09-09T01:40:51;99983.69;;;16.29;100.00
56604;BME280;42486;47.478;19.036;2022-09-09T01:43:56;99977.94;;;16.34;100.00
56604;BME280;42486;47.478;19.036;2022-09-09T01:46:59;99973.13;;;16.29;100.00
56604;BME280;42486;47.478;19.036;2022-09-09T01:50:06;99968.38;;;16.33;100.00
56604;BME280;42486;47.478;19.036;2022-09-09T01:53:17;99987.50;;;16.35;100.00
56604;BME280;42486;47.478;19.036;2022-09-09T01:56:26;99992.16;;;16.41;100.00
56604;BME280;42486;47.478;19.036;2022-09-09T02:02:39;99987.19;;;16.38;100.00
56604;BME280;42486;47.478;19.036;2022-09-09T02:05:49;99974.47;;;16.34;100.00
56604;BME280;42486;47.478;19.036;2022-09-09T02:08:56;99975.97;;;16.36;100.00
56604;BME280;42486;47.478;19.036;2022-09-09T02:12:08;99966.56;;;16.34;100.00
56604;BME280;42486;47.478;19.036;2022-09-09T02:15:58;99968.53;;;16.32;100.00
56604;BME280;42486;47.478;19.036;2022-09-09T02:21:44;99981.75;;;16.40;100.00
56604;BME280;42486;47.478;19.036;2022-09-09T02:24:47;99978.28;;;16.39;100.00
56604;BME280;42486;47.478;19.036;2022-09-09T02:27:53;99980.75;;;16.41;100.00
56604;BME280;42486;47.478;19.036;2022-09-09T02:30:56;99983.38;;;16.41;100.00
56604;BME280;42486;47.478;19.036;2022-09-09T02:34:01;99976.66;;;16.38;100.00
56604;BME280;42486;47.478;19.036;2022-09-09T02:37:06;99981.91;;;16.38;100.00
56604;BME280;42486;47.478;19.036;2022-09-09T02:40:10;99982.56;;;16.40;100.00
56604;BME280;42486;47.478;19.036;2022-09-09T02:43:14;99985.37;;;16.39;100.00
56604;BME280;42486;47.478;19.036;2022-09-09T02:46:32;99983.72;;;16.38;100.00
56604;BME280;42486;47.478;19.036;2022-09-09T02:52:54;99979.28;;;16.38;100.00
56604;BME280;42486;47.478;19.036;2022-09-09T02:56:08;99981.06;;;16.38;100.00
56604;BME280;42486;47.478;19.036;2022-09-09T02:59:14;99987.38;;;16.45;100.00
56604;BME280;42486;47.478;19.036;2022-09-09T03:02:17;99994.28;;;16.46;100.00
56604;BME280;42486;47.478;19.036;2022-09-09T03:05:21;99996.28;;;16.44;100.00
56604;BME280;42486;47.478;19.036;2022-09-09T03:08:24;100000.37;;;16.38;100.00
56604;BME280;42486;47.478;19.036;2022-09-09T03:11:27;100008.78;;;16.42;100.00
56604;BME280;42486;47.478;19.036;2022-09-09T03:14:32;100008.44;;;16.37;100.00
56604;BME280;42486;47.478;19.036;2022-09-09T03:17:34;100012.69;;;16.29;100.00
56604;BME280;42486;47.478;19.036;2022-09-09T03:20:38;100014.72;;;16.36;100.00
56604;BME280;42486;47.478;19.036;2022-09-09T03:23:45;100023.75;;;16.33;100.00
56604;BME280;42486;47.478;19.036;2022-09-09T03:26:52;100021.38;;;16.22;100.00
56604;BME280;42486;47.478;19.036;2022-09-09T03:29:57;100020.50;;;16.13;100.00
56604;BME280;42486;47.478;19.036;2022-09-09T03:33:00;100022.44;;;16.03;100.00
56604;BME280;42486;47.478;19.036;2022-09-09T03:36:04;100017.34;;;16.01;100.00
56604;BME280;42486;47.478;19.036;2022-09-09T03:39:10;100019.44;;;15.98;100.00
56604;BME280;42486;47.478;19.036;2022-09-09T03:42:13;100010.53;;;15.91;100.00
56604;BME280;42486;47.478;19.036;2022-09-09T03:45:16;100014.06;;;15.81;100.00
56604;BME280;42486;47.478;19.036;2022-09-09T03:48:19;100015.97;;;15.71;100.00
56604;BME280;42486;47.478;19.036;2022-09-09T03:51:22;100013.44;;;15.61;100.00
56604;BME280;42486;47.478;19.036;2022-09-09T03:54:24;100021.47;;;15.60;100.00
56604;BME280;42486;47.478;19.036;2022-09-09T03:57:27;100032.31;;;15.75;100.00
56604;BME280;42486;47.478;19.036;2022-09-09T04:00:29;100029.38;;;15.60;100.00
56604;BME280;42486;47.478;19.036;2022-09-09T04:03:32;100022.09;;;15.54;100.00
56604;BME280;42486;47.478;19.036;2022-09-09T04:06:34;100026.69;;;15.52;100.00
56604;BME280;42486;47.478;19.036;2022-09-09T04:09:37;100024.88;;;15.52;100.00
56604;BME280;42486;47.478;19.036;2022-09-09T04:12:49;100023.28;;;15.59;100.00
56604;BME280;42486;47.478;19.036;2022-09-09T04:15:52;100025.91;;;15.59;100.00
56604;BME280;42486;47.478;19.036;2022-09-09T04:19:01;100024.09;;;15.60;100.00
56604;BME280;42486;47.478;19.036;2022-09-09T04:22:09;100029.38;;;15.60;100.00
56604;BME280;42486;47.478;19.036;2022-09-09T04:25:11;100034.72;;;15.50;100.00
56604;BME280;42486;47.478;19.036;2022-09-09T04:28:14;100027.50;;;15.52;100.00
56604;BME280;42486;47.478;19.036;2022-09-09T04:31:20;100028.69;;;15.58;100.00
56604;BME280;42486;47.478;19.036;2022-09-09T04:34:25;100025.16;;;15.67;100.00
56604;BME280;42486;47.478;19.036;2022-09-09T04:37:33;100024.94;;;15.60;100.00
56604;BME280;42486;47.478;19.036;2022-09-09T04:40:35;100025.62;;;15.62;100.00
56604;BME280;42486;47.478;19.036;2022-09-09T04:43:46;100031.88;;;15.61;100.00
56604;BME280;42486;47.478;19.036;2022-09-09T04:46:48;100024.09;;;15.60;100.00
56604;BME280;42486;47.478;19.036;2022-09-09T04:49:51;100023.47;;;15.66;100.00
56604;BME280;42486;47.478;19.036;2022-09-09T04:52:54;100014.63;;;15.67;100.00
56604;BME280;42486;47.478;19.036;2022-09-09T04:56:03;100025.59;;;15.80;100.00
56604;BME280;42486;47.478;19.036;2022-09-09T04:59:07;100026.69;;;15.96;100.00
56604;BME280;42486;47.478;19.036;2022-09-09T05:02:12;100017.03;;;16.04;100.00
56604;BME280;42486;47.478;19.036;2022-09-09T05:05:15;100018.34;;;16.08;100.00
56604;BME280;42486;47.478;19.036;2022-09-09T05:08:18;100031.88;;;16.14;100.00
56604;BME280;42486;47.478;19.036;2022-09-09T05:11:28;100032.88;;;16.13;100.00
56604;BME280;42486;47.478;19.036;2022-09-09T05:14:32;100029.78;;;16.17;100.00
56604;BME280;42486;47.478;19.036;2022-09-09T05:17:37;100034.28;;;16.25;100.00
56604;BME280;42486;47.478;19.036;2022-09-09T05:20:39;100035.12;;;16.34;100.00
56604;BME280;42486;47.478;19.036;2022-09-09T05:23:44;100026.44;;;16.49;100.00
56604;BME280;42486;47.478;19.036;2022-09-09T05:26:50;100036.22;;;16.65;100.00
56604;BME280;42486;47.478;19.036;2022-09-09T05:29:55;100028.53;;;16.80;100.00
56604;BME280;42486;47.478;19.036;2022-09-09T05:33:00;100033.34;;;16.93;100.00
56604;BME280;42486;47.478;19.036;2022-09-09T05:36:07;100032.19;;;16.87;100.00
56604;BME280;42486;47.478;19.036;2022-09-09T05:39:11;100031.72;;;17.00;100.00
56604;BME280;42486;47.478;19.036;2022-09-09T05:42:14;100035.69;;;17.04;100.00
56604;BME280;42486;47.478;19.036;2022-09-09T05:45:17;100039.53;;;17.18;100.00
56604;BME280;42486;47.478;19.036;2022-09-09T05:48:23;100045.16;;;17.39;100.00
56604;BME280;42486;47.478;19.036;2022-09-09T05:51:28;100049.41;;;17.49;100.00
56604;BME280;42486;47.478;19.036;2022-09-09T05:54:39;100054.22;;;17.53;100.00
56604;BME280;42486;47.478;19.036;2022-09-09T05:57:47;100054.69;;;17.57;100.00
56604;BME280;42486;47.478;19.036;2022-09-09T06:00:59;100048.09;;;17.69;100.00
56604;BME280;42486;47.478;19.036;2022-09-09T06:04:02;100051.25;;;17.81;100.00
56604;BME280;42486;47.478;19.036;2022-09-09T06:07:05;100054.19;;;17.94;100.00
56604;BME280;42486;47.478;19.036;2022-09-09T06:10:10;100056.78;;;18.19;100.00
56604;BME280;42486;47.478;19.036;2022-09-09T06:13:15;100056.22;;;18.40;100.00
56604;BME280;42486;47.478;19.036;2022-09-09T06:16:18;100054.34;;;18.57;100.00
56604;BME280;42486;47.478;19.036;2022-09-09T06:19:21;100050.63;;;18.74;100.00
56604;BME280;42486;47.478;19.036;2022-09-09T06:22:28;100056.56;;;18.84;100.00
56604;BME280;42486;47.478;19.036;2022-09-09T06:25:32;100058.56;;;18.74;99.82
56604;BME280;42486;47.478;19.036;2022-09-09T06:28:37;100063.31;;;19.18;100.00
56604;BME280;42486;47.478;19.036;2022-09-09T06:31:44;100070.87;;;20.20;90.69
56604;BME280;42486;47.478;19.036;2022-09-09T06:34:49;100071.53;;;21.03;79.94
56604;BME280;42486;47.478;19.036;2022-09-09T06:37:55;100074.50;;;22.29;72.80
56604;BME280;42486;47.478;19.036;2022-09-09T06:41:01;100073.44;;;23.33;66.09
56604;BME280;42486;47.478;19.036;2022-09-09T06:44:03;100062.94;;;23.24;65.90
56604;BME280;42486;47.478;19.036;2022-09-09T06:47:07;100064.50;;;24.38;61.32
56604;BME280;42486;47.478;19.036;2022-09-09T06:50:11;100072.59;;;23.45;62.53
56604;BME280;42486;47.478;19.036;2022-09-09T06:53:15;100072.19;;;22.67;67.11
56604;BME280;42486;47.478;19.036;2022-09-09T06:56:34;100071.34;;;22.60;66.84
56604;BME280;42486;47.478;19.036;2022-09-09T06:59:40;100069.78;;;21.74;71.30
56604;BME280;42486;47.478;19.036;2022-09-09T07:02:44;100072.00;;;21.99;70.62
56604;BME280;42486;47.478;19.036;2022-09-09T07:05:56;100079.47;;;22.17;67.61
56604;BME280;42486;47.478;19.036;2022-09-09T07:09:01;100082.66;;;21.71;69.85
56604;BME280;42486;47.478;19.036;2022-09-09T07:12:06;100088.34;;;20.88;72.84
56604;BME280;42486;47.478;19.036;2022-09-09T07:15:10;100086.97;;;20.18;76.18
56604;BME280;42486;47.478;19.036;2022-09-09T07:18:13;100085.25;;;19.50;82.61
56604;BME280;42486;47.478;19.036;2022-09-09T07:21:18;100084.66;;;19.63;84.10
56604;BME280;42486;47.478;19.036;2022-09-09T07:24:24;100088.63;;;23.65;64.54
56604;BME280;42486;47.478;19.036;2022-09-09T07:27:27;100107.06;;;28.35;48.67
56604;BME280;42486;47.478;19.036;2022-09-09T07:30:29;100104.81;;;29.87;42.94
56604;BME280;42486;47.478;19.036;2022-09-09T07:33:33;100102.19;;;28.20;46.05
56604;BME280;42486;47.478;19.036;2022-09-09T07:36:40;100111.06;;;25.53;53.11
56604;BME280;42486;47.478;19.036;2022-09-09T07:39:46;100111.44;;;23.74;61.35
56604;BME280;42486;47.478;19.036;2022-09-09T07:42:51;100093.28;;;21.99;68.21
56604;BME280;42486;47.478;19.036;2022-09-09T07:45:58;100095.97;;;21.49;72.62
56604;BME280;42486;47.478;19.036;2022-09-09T07:49:07;100108.44;;;21.12;72.89
56604;BME280;42486;47.478;19.036;2022-09-09T07:52:14;100103.72;;;20.93;75.50
56604;BME280;42486;47.478;19.036;2022-09-09T07:55:21;100104.06;;;20.90;72.41
56604;BME280;42486;47.478;19.036;2022-09-09T07:58:28;100101.94;;;21.00;71.51
56604;BME280;42486;47.478;19.036;2022-09-09T08:01:41;100091.87;;;21.32;75.42
56604;BME280;42486;47.478;19.036;2022-09-09T08:04:45;100099.56;;;21.42;69.06
56604;BME280;42486;47.478;19.036;2022-09-09T08:07:51;100111.00;;;21.06;70.50
56604;BME280;42486;47.478;19.036;2022-09-09T08:11:08;100101.72;;;21.17;68.55
56604;BME280;42486;47.478;19.036;2022-09-09T08:14:12;100098.16;;;21.46;67.00
56604;BME280;42486;47.478;19.036;2022-09-09T08:17:19;100092.25;;;21.29;66.23
56604;BME280;42486;47.478;19.036;2022-09-09T08:20:24;100091.63;;;21.48;66.40
56604;BME280;42486;47.478;19.036;2022-09-09T08:23:28;100090.75;;;21.91;67.77
56604;BME280;42486;47.478;19.036;2022-09-09T08:26:33;100096.31;;;21.96;64.24
56604;BME280;42486;47.478;19.036;2022-09-09T08:29:37;100093.19;;;22.14;63.65
56604;BME280;42486;47.478;19.036;2022-09-09T08:32:40;100099.03;;;22.24;63.89
56604;BME280;42486;47.478;19.036;2022-09-09T08:35:50;100088.37;;;22.24;61.04
56604;BME280;42486;47.478;19.036;2022-09-09T08:38:53;100091.50;;;22.34;62.56
56604;BME280;42486;47.478;19.036;2022-09-09T08:45:17;100086.19;;;22.34;59.99
56604;BME280;42486;47.478;19.036;2022-09-09T08:51:31;100102.41;;;22.87;58.78
56604;BME280;42486;47.478;19.036;2022-09-09T08:54:37;100098.06;;;22.86;59.78
56604;BME280;42486;47.478;19.036;2022-09-09T08:57:54;100097.75;;;22.96;59.91
56604;BME280;42486;47.478;19.036;2022-09-09T09:16:58;100093.06;;;23.18;56.36
56604;BME280;42486;47.478;19.036;2022-09-09T09:20:11;100090.03;;;23.28;50.75
56604;BME280;42486;47.478;19.036;2022-09-09T09:23:22;100097.03;;;23.49;50.45
56604;BME280;42486;47.478;19.036;2022-09-09T09:26:33;100080.63;;;23.65;51.51
56604;BME280;42486;47.478;19.036;2022-09-09T09:29:37;100078.59;;;23.87;46.89
56604;BME280;42486;47.478;19.036;2022-09-09T09:36:35;100069.12;;;24.11;45.75
56604;BME280;42486;47.478;19.036;2022-09-09T09:39:41;100064.34;;;24.27;46.97
56604;BME280;42486;47.478;19.036;2022-09-09T09:42:59;100070.94;;;24.24;45.48
56604;BME280;42486;47.478;19.036;2022-09-09T09:46:24;100072.41;;;24.13;46.33
56604;BME280;42486;47.478;19.036;2022-09-09T09:49:32;100078.72;;;24.32;44.98
56604;BME280;42486;47.478;19.036;2022-09-09T09:52:40;100079.97;;;24.16;45.23
56604;BME280;42486;47.478;19.036;2022-09-09T09:55:50;100078.94;;;24.31;44.41
56604;BME280;42486;47.478;19.036;2022-09-09T09:58:56;100079.75;;;24.31;46.40
56604;BME280;42486;47.478;19.036;2022-09-09T10:08:18;100078.22;;;24.62;45.53
56604;BME280;42486;47.478;19.036;2022-09-09T10:24:54;100077.50;;;24.87;42.64
56604;BME280;42486;47.478;19.036;2022-09-09T10:35:02;100061.72;;;25.74;42.78
56604;BME280;42486;47.478;19.036;2022-09-09T10:38:11;100069.00;;;25.91;39.09
56604;BME280;42486;47.478;19.036;2022-09-09T10:57:53;100064.63;;;26.16;38.66
56604;BME280;42486;47.478;19.036;2022-09-09T11:03:39;100058.31;;;26.28;39.34
56604;BME280;42486;47.478;19.036;2022-09-09T11:06:44;100061.16;;;26.52;42.48
56604;BME280;42486;47.478;19.036;2022-09-09T11:09:54;100058.78;;;26.25;39.75
56604;BME280;42486;47.478;19.036;2022-09-09T11:13:05;100053.97;;;26.27;39.68
56604;BME280;42486;47.478;19.036;2022-09-09T11:19:40;100060.31;;;26.51;40.21
56604;BME280;42486;47.478;19.036;2022-09-09T11:22:47;100044.63;;;26.55;40.00
56604;BME280;42486;47.478;19.036;2022-09-09T11:25:52;100042.81;;;26.49;42.24
56604;BME280;42486;47.478;19.036;2022-09-09T11:29:21;100051.75;;;26.24;40.77
56604;BME280;42486;47.478;19.036;2022-09-09T11:38:52;100049.75;;;26.38;39.57
56604;BME280;42486;47.478;19.036;2022-09-09T11:48:34;100033.81;;;26.62;42.34
56604;BME280;42486;47.478;19.036;2022-09-09T11:51:41;100029.28;;;26.44;39.93
56604;BME280;42486;47.478;19.036;2022-09-09T11:54:46;100034.03;;;25.86;41.83
56604;BME280;42486;47.478;19.036;2022-09-09T11:57:48;100036.63;;;25.93;42.41
56604;BME280;42486;47.478;19.036;2022-09-09T12:00:59;100034.34;;;25.71;42.22
56604;BME280;42486;47.478;19.036;2022-09-09T12:13:26;100031.84;;;25.26;43.70
56604;BME280;42486;47.478;19.036;2022-09-09T12:16:37;100039.47;;;25.23;43.98
56604;BME280;42486;47.478;19.036;2022-09-09T12:19:41;100051.91;;;25.04;44.70
56604;BME280;42486;47.478;19.036;2022-09-09T12:29:42;100045.22;;;26.20;41.84
56604;BME280;42486;47.478;19.036;2022-09-09T12:32:46;100038.00;;;26.02;43.12
56604;BME280;42486;47.478;19.036;2022-09-09T12:35:53;100026.53;;;26.13;44.24
56604;BME280;42486;47.478;19.036;2022-09-09T12:39:09;100012.94;;;26.33;43.65
56604;BME280;42486;47.478;19.036;2022-09-09T12:42:22;100024.47;;;26.16;42.28
56604;BME280;42486;47.478;19.036;2022-09-09T12:45:28;100023.69;;;26.45;44.19
56604;BME280;42486;47.478;19.036;2022-09-09T12:48:38;100017.75;;;26.43;42.21
56604;BME280;42486;47.478;19.036;2022-09-09T12:51:42;100006.06;;;26.37;42.62
56604;BME280;42486;47.478;19.036;2022-09-09T12:54:48;100006.59;;;26.46;41.89
56604;BME280;42486;47.478;19.036;2022-09-09T12:57:53;100008.25;;;26.77;41.74
56604;BME280;42486;47.478;19.036;2022-09-09T13:00:56;100006.84;;;26.75;41.31
56604;BME280;42486;47.478;19.036;2022-09-09T13:03:59;100000.19;;;26.77;42.21
56604;BME280;42486;47.478;19.036;2022-09-09T13:07:07;99990.91;;;26.31;41.94
56604;BME280;42486;47.478;19.036;2022-09-09T13:10:12;99979.84;;;26.09;41.32
56604;BME280;42486;47.478;19.036;2022-09-09T13:13:36;99977.00;;;26.04;41.84
56604;BME280;42486;47.478;19.036;2022-09-09T13:16:39;99969.72;;;25.93;42.37
56604;BME280;42486;47.478;19.036;2022-09-09T13:19:44;99970.41;;;25.88;41.56
56604;BME280;42486;47.478;19.036;2022-09-09T13:22:54;99973.09;;;25.82;42.52
56604;BME280;42486;47.478;19.036;2022-09-09T13:29:25;99957.63;;;25.65;40.63
56604;BME280;42486;47.478;19.036;2022-09-09T13:32:29;99957.63;;;25.90;41.19
56604;BME280;42486;47.478;19.036;2022-09-09T13:39:02;99956.63;;;25.85;42.42
56604;BME280;42486;47.478;19.036;2022-09-09T13:42:05;99956.69;;;25.78;42.15
56604;BME280;42486;47.478;19.036;2022-09-09T13:45:18;99954.81;;;25.79;42.83
56604;BME280;42486;47.478;19.036;2022-09-09T13:48:28;99946.31;;;25.63;43.06
56604;BME280;42486;47.478;19.036;2022-09-09T13:51:33;99946.88;;;25.72;42.48
56604;BME280;42486;47.478;19.036;2022-09-09T13:54:36;99940.37;;;25.80;42.50
56604;BME280;42486;47.478;19.036;2022-09-09T13:57:38;99949.25;;;25.80;43.62
56604;BME280;42486;47.478;19.036;2022-09-09T14:00:41;99933.25;;;26.10;42.86
56604;BME280;42486;47.478;19.036;2022-09-09T14:03:48;99934.13;;;26.41;41.70
56604;BME280;42486;47.478;19.036;2022-09-09T14:06:50;99922.94;;;26.74;40.12
56604;BME280;42486;47.478;19.036;2022-09-09T14:09:52;99919.97;;;26.64;41.50
56604;BME280;42486;47.478;19.036;2022-09-09T14:12:54;99923.91;;;26.20;41.03
56604;BME280;42486;47.478;19.036;2022-09-09T14:16:02;99917.41;;;26.09;39.36
56604;BME280;42486;47.478;19.036;2022-09-09T14:19:08;99913.59;;;25.86;41.54
56604;BME280;42486;47.478;19.036;2022-09-09T14:22:11;99905.72;;;25.66;40.37
56604;BME280;42486;47.478;19.036;2022-09-09T14:25:22;99909.91;;;25.62;41.11
56604;BME280;42486;47.478;19.036;2022-09-09T14:28:24;99907.69;;;25.59;42.15
56604;BME280;42486;47.478;19.036;2022-09-09T14:31:49;99919.41;;;25.58;40.55
56604;BME280;42486;47.478;19.036;2022-09-09T14:34:57;99914.66;;;25.42;41.47
56604;BME280;42486;47.478;19.036;2022-09-09T14:37:59;99913.06;;;25.34;42.19
56604;BME280;42486;47.478;19.036;2022-09-09T14:41:11;99906.12;;;25.52;41.14
56604;BME280;42486;47.478;19.036;2022-09-09T14:44:15;99910.81;;;25.75;41.81
56604;BME280;42486;47.478;19.036;2022-09-09T14:47:22;99904.47;;;25.69;42.13
56604;BME280;42486;47.478;19.036;2022-09-09T14:50:26;99904.25;;;25.52;43.04
56604;BME280;42486;47.478;19.036;2022-09-09T14:53:31;99905.16;;;25.46;44.63
56604;BME280;42486;47.478;19.036;2022-09-09T14:56:48;99894.13;;;25.36;45.42
56604;BME280;42486;47.478;19.036;2022-09-09T14:59:50;99907.44;;;25.24;46.15
56604;BME280;42486;47.478;19.036;2022-09-09T15:02:53;99906.00;;;25.21;45.22
56604;BME280;42486;47.478;19.036;2022-09-09T15:05:57;99901.31;;;25.17;44.06
56604;BME280;42486;47.478;19.036;2022-09-09T15:09:10;99906.78;;;24.97;43.35
56604;BME280;42486;47.478;19.036;2022-09-09T15:12:14;99901.25;;;24.98;44.53
56604;BME280;42486;47.478;19.036;2022-09-09T15:15:16;99909.87;;;25.00;42.26
56604;BME280;42486;47.478;19.036;2022-09-09T15:18:21;99911.28;;;25.03;41.06
56604;BME280;42486;47.478;19.036;2022-09-09T15:21:24;99911.00;;;25.11;41.39
56604;BME280;42486;47.478;19.036;2022-09-09T15:24:39;99903.19;;;25.10;41.29
56604;BME280;42486;47.478;19.036;2022-09-09T15:27:41;99902.91;;;25.24;43.19
56604;BME280;42486;47.478;19.036;2022-09-09T15:30:48;99900.31;;;25.36;42.71
56604;BME280;42486;47.478;19.036;2022-09-09T15:33:52;99900.53;;;25.53;40.31
56604;BME280;42486;47.478;19.036;2022-09-09T15:36:54;99900.38;;;25.66;41.41
56604;BME280;42486;47.478;19.036;2022-09-09T15:39:57;99904.94;;;25.84;39.90
56604;BME280;42486;47.478;19.036;2022-09-09T15:43:02;99901.13;;;25.74;39.09
56604;BME280;42486;47.478;19.036;2022-09-09T15:46:30;99905.34;;;25.44;39.81
56604;BME280;42486;47.478;19.036;2022-09-09T15:49:31;99906.91;;;25.09;40.10
56604;BME280;42486;47.478;19.036;2022-09-09T15:52:44;99903.84;;;24.80;42.07
56604;BME280;42486;47.478;19.036;2022-09-09T15:55:46;99903.34;;;24.65;40.97
56604;BME280;42486;47.478;19.036;2022-09-09T15:59:00;99903.78;;;24.61;40.96
56604;BME280;42486;47.478;19.036;2022-09-09T16:02:04;99895.03;;;24.48;41.80
56604;BME280;42486;47.478;19.036;2022-09-09T16:05:08;99895.03;;;24.48;43.13
56604;BME280;42486;47.478;19.036;2022-09-09T16:08:10;99907.22;;;24.30;45.22
56604;BME280;42486;47.478;19.036;2022-09-09T16:11:14;99915.50;;;24.15;45.36
56604;BME280;42486;47.478;19.036;2022-09-09T16:14:17;99914.75;;;24.02;45.79
56604;BME280;42486;47.478;19.036;2022-09-09T16:17:21;99924.63;;;23.94;43.90
56604;BME280;42486;47.478;19.036;2022-09-09T16:20:23;99926.91;;;23.91;44.92
56604;BME280;42486;47.478;19.036;2022-09-09T16:23:29;99921.97;;;23.88;44.55
56604;BME280;42486;47.478;19.036;2022-09-09T16:26:33;99918.94;;;23.78;48.09
56604;BME280;42486;47.478;19.036;2022-09-09T16:29:36;99920.78;;;23.64;47.34
56604;BME280;42486;47.478;19.036;2022-09-09T16:32:38;99919.16;;;23.56;46.88
56604;BME280;42486;47.478;19.036;2022-09-09T16:35:43;99922.25;;;23.53;45.47
56604;BME280;42486;47.478;19.036;2022-09-09T16:38:53;99922.50;;;23.38;48.32
56604;BME280;42486;47.478;19.036;2022-09-09T16:41:59;99919.00;;;23.24;48.80
56604;BME280;42486;47.478;19.036;2022-09-09T16:45:07;99917.78;;;23.14;47.50
56604;BME280;42486;47.478;19.036;2022-09-09T16:48:09;99916.34;;;22.98;49.12
56604;BME280;42486;47.478;19.036;2022-09-09T16:51:34;99907.91;;;22.81;50.22
56604;BME280;42486;47.478;19.036;2022-09-09T16:54:38;99903.78;;;22.58;49.65
56604;BME280;42486;47.478;19.036;2022-09-09T16:57:41;99908.66;;;22.41;51.11
56604;BME280;42486;47.478;19.036;2022-09-09T17:00:50;99916.59;;;22.28;52.03
56604;BME280;42486;47.478;19.036;2022-09-09T17:03:59;99926.34;;;22.14;52.69
56604;BME280;42486;47.478;19.036;2022-09-09T17:07:12;99921.59;;;22.03;53.98
56604;BME280;42486;47.478;19.036;2022-09-09T17:10:14;99927.69;;;21.90;56.60
56604;BME280;42486;47.478;19.036;2022-09-09T17:13:16;99928.00;;;21.74;56.62
56604;BME280;42486;47.478;19.036;2022-09-09T17:16:27;99919.97;;;21.67;58.02
56604;BME280;42486;47.478;19.036;2022-09-09T17:19:30;99927.69;;;21.55;58.40
56604;BME280;42486;47.478;19.036;2022-09-09T17:22:32;99924.63;;;21.52;60.71
56604;BME280;42486;47.478;19.036;2022-09-09T17:26:00;99924.25;;;21.33;61.74
56604;BME280;42486;47.478;19.036;2022-09-09T17:29:02;99933.34;;;21.18;62.54
56604;BME280;42486;47.478;19.036;2022-09-09T17:32:06;99925.44;;;21.03;62.17
56604;BME280;42486;47.478;19.036;2022-09-09T17:35:12;99927.78;;;20.91;62.50
56604;BME280;42486;47.478;19.036;2022-09-09T17:38:18;99927.28;;;20.81;61.66
56604;BME280;42486;47.478;19.036;2022-09-09T17:41:27;99925.75;;;20.72;63.33
56604;BME280;42486;47.478;19.036;2022-09-09T17:44:41;99921.59;;;20.62;64.39
56604;BME280;42486;47.478;19.036;2022-09-09T17:47:47;99924.91;;;20.50;66.61
56604;BME280;42486;47.478;19.036;2022-09-09T17:54:46;99938.66;;;20.38;64.73
56604;BME280;42486;47.478;19.036;2022-09-09T17:58:01;99947.19;;;20.34;63.23
56604;BME280;42486;47.478;19.036;2022-09-09T18:01:21;99938.94;;;20.29;62.71
56604;BME280;42486;47.478;19.036;2022-09-09T18:04:32;99936.12;;;20.30;64.47
56604;BME280;42486;47.478;19.036;2022-09-09T18:07:38;99931.63;;;20.31;65.91
56604;BME280;42486;47.478;19.036;2022-09-09T18:10:40;99920.34;;;20.43;67.32
56604;BME280;42486;47.478;19.036;2022-09-09T18:13:51;99917.44;;;20.38;67.74
56604;BME280;42486;47.478;19.036;2022-09-09T18:17:05;99932.66;;;20.30;67.16
56604;BME280;42486;47.478;19.036;2022-09-09T18:20:10;99947.13;;;20.27;66.94
56604;BME280;42486;47.478;19.036;2022-09-09T18:23:35;99949.56;;;20.29;65.77
56604;BME280;42486;47.478;19.036;2022-09-09T18:26:51;99940.41;;;20.31;68.15
56604;BME280;42486;47.478;19.036;2022-09-09T18:29:58;99935.69;;;20.27;68.13
56604;BME280;42486;47.478;19.036;2022-09-09T18:33:05;99943.81;;;20.25;65.60
56604;BME280;42486;47.478;19.036;2022-09-09T18:36:15;99937.31;;;20.28;65.01
56604;BME280;42486;47.478;19.036;2022-09-09T18:39:26;99941.44;;;20.30;64.83
56604;BME280;42486;47.478;19.036;2022-09-09T18:42:34;99946.91;;;20.29;67.75
56604;BME280;42486;47.478;19.036;2022-09-09T18:45:39;99957.25;;;20.23;65.76
56604;BME280;42486;47.478;19.036;2022-09-09T18:48:47;99958.53;;;20.28;65.40
56604;BME280;42486;47.478;19.036;2022-09-09T18:51:52;99956.91;;;20.27;65.05